createdAt,value
2023-01-05T00:00:33.036Z,55.10
2023-01-05T00:03:07.718Z,55.10
2023-01-05T00:06:36.829Z,55.10
2023-01-05T00:09:12.749Z,55.00
2023-01-05T00:12:03.791Z,55.00
2023-01-05T00:14:54.575Z,54.90
2023-01-05T00:17:45.396Z,55.00
2023-01-05T00:20:39.864Z,55.00
2023-01-05T00:23:13.172Z,55.10
2023-01-05T00:25:46.497Z,55.20
2023-01-05T00:28:19.860Z,55.30
2023-01-05T00:30:53.158Z,56.30
2023-01-05T00:33:26.450Z,56.20
2023-01-05T00:36:01.074Z,56.70
2023-01-05T00:38:34.340Z,57.20
2023-01-05T00:41:07.598Z,57.30
2023-01-05T00:43:40.866Z,57.50
2023-01-05T00:46:14.172Z,57.50
2023-01-05T00:48:47.486Z,57.40
2023-01-05T00:51:22.189Z,57.40
2023-01-05T00:53:55.526Z,57.40
2023-01-05T00:56:28.911Z,57.30
2023-01-05T00:59:03.431Z,57.40
2023-01-05T01:01:36.817Z,57.20
2023-01-05T01:04:10.184Z,57.20
2023-01-05T01:06:45.169Z,57.40
2023-01-05T01:09:18.712Z,57.40
2023-01-05T01:11:52.722Z,57.60
2023-01-05T01:14:26.370Z,57.60
2023-01-05T01:16:59.856Z,57.70
2023-01-05T01:19:33.628Z,57.80
2023-01-05T01:22:08.357Z,57.90
2023-01-05T01:24:41.682Z,57.90
2023-01-05T01:27:15.233Z,58.00
2023-01-05T01:29:48.651Z,58.00
2023-01-05T01:32:24.449Z,57.80
2023-01-05T01:34:57.898Z,57.80
2023-01-05T01:37:32.547Z,58.40
2023-01-05T01:40:07.989Z,58.10
2023-01-05T01:42:41.491Z,58.10
2023-01-05T01:45:21.033Z,58.00
2023-01-05T01:47:58.210Z,58.00
2023-01-05T01:50:35.985Z,57.90
2023-01-05T01:53:14.470Z,58.00
2023-01-05T01:55:48.602Z,58.20
2023-01-05T01:58:27.061Z,58.20
2023-01-05T02:01:01.398Z,58.30
2023-01-05T02:03:35.047Z,58.10
2023-01-05T02:06:08.961Z,58.20
2023-01-05T02:08:43.867Z,58.20
2023-01-05T02:11:35.796Z,58.30
2023-01-05T02:14:23.892Z,58.40
2023-01-05T02:17:13.320Z,58.30
2023-01-05T02:20:28.268Z,58.40
2023-01-05T02:23:43.234Z,58.30
2023-01-05T02:27:07.795Z,58.40
2023-01-05T02:30:10.763Z,58.40
2023-01-05T02:32:53.595Z,58.40
2023-01-05T02:35:35.672Z,58.40
2023-01-05T02:38:16.828Z,58.50
2023-01-05T02:40:56.325Z,58.40
2023-01-05T02:43:30.460Z,58.50
2023-01-05T02:46:04.964Z,58.50
2023-01-05T02:48:41.163Z,58.60
2023-01-05T02:51:20.435Z,58.60
2023-01-05T02:53:59.718Z,58.60
2023-01-05T02:56:38.328Z,58.50
2023-01-05T02:59:19.205Z,58.60
2023-01-05T03:01:57.615Z,58.60
2023-01-05T03:04:39.815Z,58.60
2023-01-05T03:07:16.740Z,58.70
2023-01-05T03:09:50.948Z,58.70
2023-01-05T03:12:47.749Z,58.70
2023-01-05T03:15:26.343Z,58.60
2023-01-05T03:18:05.406Z,58.70
2023-01-05T03:20:44.697Z,58.50
2023-01-05T03:23:37.256Z,58.60
2023-01-05T03:26:30.804Z,58.40
2023-01-05T03:29:22.967Z,58.40
2023-01-05T03:32:21.216Z,58.60
2023-01-05T03:35:15.543Z,58.50
2023-01-05T03:37:56.985Z,58.50
2023-01-05T03:40:32.860Z,58.60
2023-01-05T03:43:08.216Z,58.60
2023-01-05T03:45:45.979Z,58.50
2023-01-05T03:48:28.201Z,58.60
2023-01-05T03:51:01.510Z,58.50
2023-01-05T03:53:37.538Z,58.50
2023-01-05T03:56:11.036Z,58.50
2023-01-05T03:58:44.391Z,58.60
2023-01-05T04:01:17.802Z,58.60
2023-01-05T04:03:51.784Z,58.50
2023-01-05T04:06:25.271Z,58.40
2023-01-05T04:09:00.139Z,58.50
2023-01-05T04:11:34.036Z,58.80
2023-01-05T04:14:11.265Z,58.50
2023-01-05T04:16:45.186Z,58.40
2023-01-05T04:19:24.168Z,58.40
2023-01-05T04:22:00.049Z,58.30
2023-01-05T04:24:37.437Z,58.40
2023-01-05T04:27:10.991Z,58.40
2023-01-05T04:29:45.216Z,58.30
2023-01-05T04:32:19.679Z,58.30
2023-01-05T04:34:54.242Z,58.20
2023-01-05T04:37:27.930Z,58.30
2023-01-05T04:40:02.648Z,58.40
2023-01-05T04:42:38.093Z,58.40
2023-01-05T04:45:12.737Z,58.50
2023-01-05T04:47:47.029Z,58.50
2023-01-05T04:50:24.647Z,58.50
2023-01-05T04:52:58.061Z,58.50
2023-01-05T04:55:37.147Z,58.40
2023-01-05T04:58:12.179Z,58.30
2023-01-05T05:00:47.403Z,58.40
2023-01-05T05:03:21.640Z,58.20
2023-01-05T05:05:55.070Z,58.10
2023-01-05T05:08:29.647Z,58.20
2023-01-05T05:11:06.472Z,58.10
2023-01-05T05:13:42.763Z,58.00
2023-01-05T05:16:16.289Z,58.00
2023-01-05T05:18:51.905Z,58.00
2023-01-05T05:21:29.879Z,58.00
2023-01-05T05:24:04.124Z,58.00
2023-01-05T05:26:41.388Z,58.10
2023-01-05T05:29:14.710Z,58.30
2023-01-05T05:31:48.383Z,58.10
2023-01-05T05:34:21.558Z,58.10
2023-01-05T05:36:54.899Z,58.20
2023-01-05T05:39:28.200Z,58.20
2023-01-05T05:42:02.898Z,58.10
2023-01-05T05:44:36.196Z,57.80
2023-01-05T05:47:09.527Z,58.40
2023-01-05T05:49:42.824Z,58.50
2023-01-05T05:52:16.117Z,58.50
2023-01-05T05:54:49.441Z,58.50
2023-01-05T05:57:24.119Z,58.40
2023-01-05T05:59:57.426Z,58.50
2023-01-05T06:02:30.826Z,58.50
2023-01-05T06:05:04.370Z,58.50
2023-01-05T06:07:37.684Z,58.50
2023-01-05T06:10:11.643Z,58.60
2023-01-05T06:12:46.403Z,58.70
2023-01-05T06:15:19.785Z,58.50
2023-01-05T06:17:53.187Z,58.70
2023-01-05T06:20:26.571Z,58.90
2023-01-05T06:22:59.927Z,59.00
2023-01-05T06:25:33.550Z,59.00
2023-01-05T06:28:08.229Z,59.00
2023-01-05T06:30:41.540Z,58.80
2023-01-05T06:33:14.824Z,59.00
2023-01-05T06:35:48.171Z,58.70
2023-01-05T06:38:21.572Z,59.00
2023-01-05T06:40:54.880Z,58.80
2023-01-05T06:43:29.794Z,58.60
2023-01-05T06:46:03.353Z,58.50
2023-01-05T06:48:36.701Z,58.60
2023-01-05T06:51:10.066Z,58.40
2023-01-05T06:53:43.416Z,58.40
2023-01-05T06:56:16.744Z,58.60
2023-01-05T06:58:51.396Z,58.60
2023-01-05T07:01:24.808Z,58.70
2023-01-05T07:03:58.207Z,58.60
2023-01-05T07:06:31.706Z,58.50
2023-01-05T07:09:05.322Z,58.30
2023-01-05T07:11:38.594Z,58.50
2023-01-05T07:14:13.364Z,58.70
2023-01-05T07:16:46.698Z,58.60
2023-01-05T07:19:20.000Z,59.00
2023-01-05T07:21:56.783Z,59.40
2023-01-05T07:24:30.428Z,59.60
2023-01-05T07:27:09.480Z,59.60
2023-01-05T07:29:44.572Z,59.70
2023-01-05T07:32:17.946Z,59.60
2023-01-05T07:34:55.742Z,59.30
2023-01-05T07:37:29.573Z,59.20
2023-01-05T07:40:02.891Z,51.60
2023-01-05T07:42:36.297Z,47.20
2023-01-05T07:45:12.711Z,44.60
2023-01-05T07:47:46.092Z,43.80
2023-01-05T07:50:19.392Z,43.70
2023-01-05T07:52:52.692Z,43.50
2023-01-05T07:55:25.966Z,43.50
2023-01-05T07:57:59.299Z,43.30
2023-01-05T08:00:34.077Z,44.20
2023-01-05T08:03:07.457Z,44.10
2023-01-05T08:05:40.809Z,44.10
2023-01-05T08:08:19.085Z,44.40
2023-01-05T08:10:56.124Z,44.70
2023-01-05T08:13:46.865Z,44.90
2023-01-05T08:16:21.659Z,45.60
2023-01-05T08:18:55.817Z,45.70
2023-01-05T08:21:29.417Z,45.80
2023-01-05T08:24:02.853Z,45.90
2023-01-05T08:26:36.205Z,46.10
2023-01-05T08:29:09.826Z,46.50
2023-01-05T08:31:44.592Z,47.20
2023-01-05T08:34:17.912Z,46.80
2023-01-05T08:36:51.272Z,46.70
2023-01-05T08:39:24.603Z,46.80
2023-01-05T08:42:02.521Z,47.10
2023-01-05T08:44:36.533Z,47.30
2023-01-05T08:47:11.704Z,47.50
2023-01-05T08:49:45.011Z,47.70
2023-01-05T08:52:18.312Z,47.50
2023-01-05T08:54:51.844Z,47.20
2023-01-05T08:57:25.113Z,47.10
2023-01-05T08:59:58.464Z,47.00
2023-01-05T09:02:33.409Z,47.00
2023-01-05T09:05:07.647Z,46.80
2023-01-05T09:07:41.184Z,46.50
2023-01-05T09:10:14.549Z,46.40
2023-01-05T09:12:47.904Z,46.40
2023-01-05T09:15:21.250Z,46.70
2023-01-05T09:17:55.962Z,46.60
2023-01-05T09:20:33.168Z,46.40
2023-01-05T09:23:09.480Z,46.30
2023-01-05T09:25:42.817Z,46.30
2023-01-05T09:28:16.206Z,46.40
2023-01-05T09:30:50.937Z,46.50
2023-01-05T09:33:26.128Z,46.70
2023-01-05T09:36:00.277Z,46.80
2023-01-05T09:38:33.644Z,46.70
2023-01-05T09:41:17.068Z,46.50
2023-01-05T09:43:53.378Z,46.70
2023-01-05T09:46:32.083Z,47.10
2023-01-05T09:49:11.765Z,46.90
2023-01-05T09:51:45.759Z,47.10
2023-01-05T09:54:20.384Z,47.00
2023-01-05T09:57:10.574Z,46.70
2023-01-05T09:59:46.541Z,46.60
2023-01-05T10:02:28.016Z,46.70
2023-01-05T10:05:05.361Z,46.90
2023-01-05T10:07:44.185Z,46.90
2023-01-05T10:10:30.915Z,47.00
2023-01-05T10:13:07.089Z,47.10
2023-01-05T10:15:46.422Z,47.00
2023-01-05T10:18:25.276Z,47.00
2023-01-05T10:21:20.792Z,47.00
2023-01-05T10:24:09.153Z,47.20
2023-01-05T10:27:23.236Z,47.00
2023-01-05T10:29:45.087Z,47.00
2023-01-05T10:32:27.065Z,47.10
2023-01-05T10:35:02.710Z,47.00
2023-01-05T10:37:56.769Z,46.90
2023-01-05T10:40:48.670Z,47.10
2023-01-05T10:43:48.713Z,47.00
2023-01-05T10:46:42.626Z,47.20
2023-01-05T10:49:19.691Z,46.80
2023-01-05T10:51:56.810Z,46.80
2023-01-05T10:54:38.362Z,46.80
2023-01-05T10:57:36.575Z,46.70
2023-01-05T11:00:13.844Z,46.70
2023-01-05T11:03:01.457Z,46.80
2023-01-05T11:05:37.242Z,46.70
2023-01-05T11:08:16.763Z,46.70
2023-01-05T11:10:53.185Z,46.70
2023-01-05T11:13:31.537Z,46.70
2023-01-05T11:16:11.558Z,46.60
2023-01-05T11:18:50.619Z,46.70
2023-01-05T11:21:25.547Z,46.60
2023-01-05T11:24:00.442Z,46.50
2023-01-05T11:26:37.391Z,46.40
2023-01-05T11:29:15.708Z,46.40
2023-01-05T11:31:53.145Z,46.50
2023-01-05T11:34:42.843Z,46.50
2023-01-05T11:37:25.546Z,46.60
2023-01-05T11:40:00.685Z,46.60
2023-01-05T11:42:42.763Z,46.50
2023-01-05T11:45:21.776Z,46.20
2023-01-05T11:47:57.646Z,46.10
2023-01-05T11:50:39.254Z,46.10
2023-01-05T11:53:26.626Z,46.00
2023-01-05T11:56:02.633Z,46.00
2023-01-05T11:58:44.442Z,46.00
2023-01-05T12:01:51.829Z,45.80
2023-01-05T12:04:56.341Z,45.80
2023-01-05T12:07:35.399Z,45.90
2023-01-05T12:10:31.647Z,46.20
2023-01-05T12:13:16.572Z,46.40
2023-01-05T12:16:16.935Z,46.40
2023-01-05T12:19:19.860Z,46.60
2023-01-05T12:22:03.840Z,46.60
2023-01-05T12:24:49.440Z,46.90
2023-01-05T12:27:34.048Z,47.00
2023-01-05T12:34:13.071Z,47.40
2023-01-05T12:37:05.515Z,47.50
2023-01-05T12:40:03.908Z,47.00
2023-01-05T12:42:55.271Z,47.10
2023-01-05T12:45:53.376Z,46.90
2023-01-05T12:48:31.619Z,46.60
2023-01-05T12:51:13.217Z,46.50
2023-01-05T12:53:53.222Z,46.30
2023-01-05T12:56:30.999Z,46.30
2023-01-05T12:59:12.156Z,46.20
2023-01-05T13:01:51.152Z,46.00
2023-01-05T13:04:46.698Z,46.00
2023-01-05T13:07:24.513Z,45.90
2023-01-05T13:10:03.148Z,46.00
2023-01-05T13:12:38.309Z,45.90
2023-01-05T13:15:19.608Z,45.90
2023-01-05T13:17:55.737Z,45.90
2023-01-05T13:20:39.535Z,45.90
2023-01-05T13:23:17.012Z,46.00
2023-01-05T13:25:56.787Z,46.00
2023-01-05T13:28:31.923Z,46.10
2023-01-05T13:31:25.477Z,46.20
2023-01-05T13:34:35.692Z,46.20
2023-01-05T13:37:30.670Z,46.30
2023-01-05T13:40:31.276Z,46.20
2023-01-05T13:43:25.503Z,46.40
2023-01-05T13:46:30.816Z,46.30
2023-01-05T13:49:27.252Z,46.50
2023-01-05T13:52:03.302Z,46.50
2023-01-05T13:54:54.693Z,46.70
2023-01-05T13:57:41.361Z,46.80
2023-01-05T14:00:25.546Z,47.00
2023-01-05T14:03:07.350Z,47.00
2023-01-05T14:05:50.413Z,47.00
2023-01-05T14:08:28.130Z,47.30
2023-01-05T14:11:12.934Z,47.30
2023-01-05T14:13:49.880Z,47.40
2023-01-05T14:17:02.799Z,47.20
2023-01-05T14:19:53.643Z,47.40
2023-01-05T14:22:38.925Z,47.50
2023-01-05T14:25:50.454Z,47.40
2023-01-05T14:28:47.433Z,47.50
2023-01-05T14:31:43.772Z,47.60
2023-01-05T14:34:29.664Z,47.70
2023-01-05T14:37:07.200Z,47.40
2023-01-05T14:39:43.827Z,47.30
2023-01-05T14:42:26.728Z,47.30
2023-01-05T14:45:02.502Z,47.30
2023-01-05T14:47:42.027Z,47.30
2023-01-05T14:50:34.569Z,47.40
2023-01-05T14:53:14.384Z,47.50
2023-01-05T14:56:20.033Z,47.50
2023-01-05T14:59:07.792Z,47.50
2023-01-05T15:01:49.373Z,47.50
2023-01-05T15:04:28.963Z,47.60
2023-01-05T15:07:13.851Z,47.60
2023-01-05T15:10:13.496Z,47.50
2023-01-05T15:13:07.932Z,47.70
2023-01-05T15:15:46.841Z,48.00
2023-01-05T15:18:51.644Z,48.20
2023-01-05T15:21:45.898Z,48.40
2023-01-05T15:24:48.181Z,48.40
2023-01-05T15:27:37.564Z,48.60
2023-01-05T15:30:25.463Z,48.70
2023-01-05T15:33:09.328Z,48.70
2023-01-05T15:35:48.999Z,48.70
2023-01-05T15:38:25.644Z,48.70
2023-01-05T15:41:06.254Z,48.90
2023-01-05T15:43:42.522Z,49.10
2023-01-05T15:46:20.159Z,49.20
2023-01-05T15:48:55.472Z,49.60
2023-01-05T15:51:32.050Z,49.80
2023-01-05T15:54:07.031Z,49.80
2023-01-05T15:56:41.328Z,49.90
2023-01-05T15:59:24.189Z,49.90
2023-01-05T16:01:58.043Z,49.90
2023-01-05T16:04:31.441Z,49.80
2023-01-05T16:07:06.544Z,49.80
2023-01-05T16:09:42.115Z,49.70
2023-01-05T16:12:24.199Z,49.60
2023-01-05T16:15:04.351Z,49.50
2023-01-05T16:17:38.719Z,49.30
2023-01-05T16:20:17.950Z,49.30
2023-01-05T16:23:01.007Z,49.20
2023-01-05T16:25:40.218Z,49.20
2023-01-05T16:28:18.384Z,49.40
2023-01-05T16:30:53.778Z,49.40
2023-01-05T16:33:35.258Z,49.70
2023-01-05T16:36:18.710Z,49.90
2023-01-05T16:38:52.071Z,50.00
2023-01-05T16:41:28.100Z,50.20
2023-01-05T16:44:02.926Z,50.30
2023-01-05T16:46:39.716Z,50.30
2023-01-05T16:49:49.908Z,50.30
2023-01-05T16:52:39.059Z,50.60
2023-01-05T16:55:29.038Z,50.40
2023-01-05T16:58:05.963Z,50.50
2023-01-05T17:00:39.936Z,50.70
2023-01-05T17:03:30.179Z,50.70
2023-01-05T17:06:04.015Z,50.80
2023-01-05T17:08:37.648Z,50.60
2023-01-05T17:11:12.742Z,50.70
2023-01-05T17:13:50.062Z,50.50
2023-01-05T17:16:23.988Z,50.50
2023-01-05T17:19:00.639Z,50.40
2023-01-05T17:21:35.567Z,50.30
2023-01-05T17:24:13.208Z,50.20
2023-01-05T17:26:46.687Z,50.10
2023-01-05T17:29:23.416Z,50.50
2023-01-05T17:31:57.270Z,51.10
2023-01-05T17:34:30.629Z,51.60
2023-01-05T17:37:04.071Z,51.90
2023-01-05T17:39:38.588Z,52.50
2023-01-05T17:42:29.465Z,52.00
2023-01-05T17:45:04.414Z,52.50
2023-01-05T17:47:37.742Z,52.70
2023-01-05T17:50:16.046Z,52.80
2023-01-05T17:52:49.434Z,52.50
2023-01-05T17:55:23.452Z,52.30
2023-01-05T17:57:58.332Z,52.20
2023-01-05T18:00:39.642Z,52.10
2023-01-05T18:03:15.984Z,52.40
2023-01-05T18:05:51.165Z,52.70
2023-01-05T18:08:24.528Z,52.40
2023-01-05T18:10:58.152Z,52.50
2023-01-05T18:13:31.735Z,52.50
2023-01-05T18:16:10.458Z,52.50
2023-01-05T18:18:44.027Z,52.50
2023-01-05T18:21:17.488Z,52.90
2023-01-05T18:23:58.268Z,53.10
2023-01-05T18:26:32.101Z,52.90
2023-01-05T18:29:05.424Z,52.90
2023-01-05T18:31:41.968Z,52.80
2023-01-05T18:34:17.348Z,53.20
2023-01-05T18:36:58.308Z,53.50
2023-01-05T18:39:39.171Z,53.70
2023-01-05T18:42:12.538Z,54.10
2023-01-05T18:44:45.951Z,54.40
2023-01-05T18:47:20.629Z,54.60
2023-01-05T18:49:57.158Z,54.60
2023-01-05T18:52:30.455Z,54.80
2023-01-05T18:55:04.056Z,55.00
2023-01-05T18:57:37.628Z,56.30
2023-01-05T19:00:12.189Z,56.90
2023-01-05T19:02:47.185Z,56.80
2023-01-05T19:05:20.534Z,57.10
2023-01-05T19:07:54.754Z,57.40
2023-01-05T19:10:31.963Z,57.50
2023-01-05T19:13:05.452Z,57.50
2023-01-05T19:15:39.691Z,57.50
2023-01-05T19:18:14.527Z,57.40
2023-01-05T19:20:55.950Z,57.30
2023-01-05T19:23:29.482Z,57.30
2023-01-05T19:26:04.373Z,57.20
2023-01-05T19:28:38.843Z,57.30
2023-01-05T19:31:14.008Z,57.40
2023-01-05T19:33:48.891Z,57.40
2023-01-05T19:36:24.571Z,57.30
2023-01-05T19:38:58.846Z,57.20
2023-01-05T19:41:32.389Z,57.40
2023-01-05T19:44:06.209Z,57.50
2023-01-05T19:46:39.359Z,57.60
2023-01-05T19:49:17.572Z,57.60
2023-01-05T19:51:51.473Z,57.40
2023-01-05T19:54:26.259Z,57.20
2023-01-05T19:56:59.608Z,57.30
2023-01-05T19:59:33.979Z,57.30
2023-01-05T20:02:07.432Z,57.20
2023-01-05T20:04:42.587Z,57.10
2023-01-05T20:07:15.964Z,57.00
2023-01-05T20:09:50.944Z,56.90
2023-01-05T20:12:24.304Z,57.00
2023-01-05T20:14:57.612Z,57.10
2023-01-05T20:17:33.151Z,57.40
2023-01-05T20:20:09.066Z,57.30
2023-01-05T20:22:43.604Z,56.90
2023-01-05T20:25:17.098Z,57.20
2023-01-05T20:27:50.529Z,57.80
2023-01-05T20:30:23.902Z,57.10
2023-01-05T20:32:57.267Z,56.90
2023-01-05T20:35:32.075Z,56.60
2023-01-05T20:38:05.464Z,57.00
2023-01-05T20:40:38.923Z,56.90
2023-01-05T20:43:12.307Z,56.90
2023-01-05T20:45:45.694Z,56.90
2023-01-05T20:48:19.002Z,57.00
2023-01-05T20:50:53.667Z,57.00
2023-01-05T20:53:27.063Z,57.00
2023-01-05T20:56:00.416Z,57.00
2023-01-05T20:58:34.296Z,56.90
2023-01-05T21:01:10.772Z,56.90
2023-01-05T21:03:45.677Z,56.80
2023-01-05T21:06:22.095Z,57.00
2023-01-05T21:08:55.756Z,57.20
2023-01-05T21:11:29.697Z,57.10
2023-01-05T21:14:06.202Z,57.50
2023-01-05T21:16:41.872Z,57.50
2023-01-05T21:19:18.801Z,58.00
2023-01-05T21:21:55.918Z,57.60
2023-01-05T21:24:29.296Z,58.00
2023-01-05T21:27:02.709Z,57.90
2023-01-05T21:29:36.150Z,58.00
2023-01-05T21:32:09.510Z,57.90
2023-01-05T21:34:42.860Z,57.80
2023-01-05T21:37:17.543Z,58.00
2023-01-05T21:39:50.914Z,58.50
2023-01-05T21:42:42.892Z,58.00
2023-01-05T21:45:16.824Z,58.30
2023-01-05T21:47:53.856Z,59.10
2023-01-05T21:50:45.190Z,59.10
2023-01-05T21:53:37.581Z,58.80
2023-01-05T21:56:28.139Z,59.10
2023-01-05T21:59:02.784Z,59.10
2023-01-05T22:01:38.797Z,59.00
2023-01-05T22:04:13.104Z,58.90
2023-01-05T22:06:46.527Z,58.80
2023-01-05T22:09:21.430Z,58.90
2023-01-05T22:11:55.213Z,58.90
2023-01-05T22:14:28.680Z,59.10
2023-01-05T22:17:02.173Z,58.90
2023-01-05T22:19:35.794Z,58.90
2023-01-05T22:22:09.209Z,58.60
2023-01-05T22:24:43.948Z,58.40
2023-01-05T22:27:17.568Z,58.40
2023-01-05T22:29:50.936Z,58.30
2023-01-05T22:32:24.255Z,58.00
2023-01-05T22:34:57.578Z,57.90
2023-01-05T22:37:30.946Z,57.80
2023-01-05T22:40:06.622Z,57.50
2023-01-05T22:42:40.039Z,57.40
2023-01-05T22:45:13.373Z,57.10
2023-01-05T22:47:46.723Z,56.80
2023-01-05T22:50:20.063Z,56.80
2023-01-05T22:52:53.400Z,56.60
2023-01-05T22:55:28.129Z,56.50
2023-01-05T22:58:01.497Z,56.40
2023-01-05T23:00:35.012Z,56.30
2023-01-05T23:03:08.320Z,56.40
2023-01-05T23:05:41.661Z,56.30
2023-01-05T23:08:15.484Z,56.10
2023-01-05T23:10:49.952Z,56.10
2023-01-05T23:13:23.332Z,56.20
2023-01-05T23:15:57.406Z,56.20
2023-01-05T23:18:30.828Z,56.30
2023-01-05T23:21:06.032Z,56.20
2023-01-05T23:23:39.856Z,56.10
2023-01-05T23:26:16.905Z,55.90
2023-01-05T23:28:50.364Z,55.90
2023-01-05T23:31:24.484Z,55.80
2023-01-05T23:33:58.901Z,55.70
2023-01-05T23:36:49.482Z,55.60
2023-01-05T23:39:27.409Z,55.50
2023-01-05T23:42:27.957Z,55.40
2023-01-05T23:45:07.503Z,55.30
2023-01-05T23:47:41.670Z,55.30
2023-01-05T23:50:18.448Z,55.30
2023-01-05T23:52:54.697Z,55.20
2023-01-05T23:55:28.959Z,55.10
2023-01-05T23:58:03.809Z,55.00
